Time;durP1;ratioP1;P1;durP2;ratioP2;P2;SDS_P1;SDS_P2;PMS_P1;PMS_P2;Temp;Humidity;BMP_temperature;BMP_pressure;BME280_temperature;BME280_humidity;BME280_pressure;Samples;Min_cycle;Max_cycle;Signal;HPM_P1;HPM_P2
2023/08/05 00:01:38;;;;;;;15.10;3.28;;;;;;;;;;5057804;28;20141;-66
2023/08/05 00:04:05;;;;;;;6.43;2.85;;;;;;;;;;5048032;28;20073;-68
2023/08/05 00:06:31;;;;;;;5.40;2.92;;;;;;;;;;5056082;28;20063;-64
2023/08/05 00:08:58;;;;;;;5.00;2.75;;;;;;;;;;5057946;28;20052;-64
2023/08/05 00:11:26;;;;;;;9.63;2.83;;;;;;;;;;5058157;28;20045;-63
2023/08/05 00:13:53;;;;;;;6.65;3.08;;;;;;;;;;5043097;28;20134;-64
2023/08/05 00:16:20;;;;;;;5.88;2.50;;;;;;;;;;5026847;28;20145;-67
2023/08/05 00:18:48;;;;;;;8.85;2.95;;;;;;;;;;5043408;28;20049;-67
2023/08/05 00:21:18;;;;;;;7.90;2.80;;;;;;;;;;5058300;28;20052;-66
2023/08/05 00:23:45;;;;;;;6.43;3.10;;;;;;;;;;5044004;28;20079;-65
2023/08/05 00:26:12;;;;;;;7.80;3.13;;;;;;;;;;5028203;28;20110;-66
2023/08/05 00:28:40;;;;;;;12.20;3.03;;;;;;;;;;5044479;28;20063;-66
2023/08/05 00:31:09;;;;;;;6.80;3.00;;;;;;;;;;5039739;28;20144;-66
2023/08/05 00:33:35;;;;;;;7.32;3.10;;;;;;;;;;5040296;28;20168;-65
2023/08/05 00:36:04;;;;;;;7.22;3.42;;;;;;;;;;5016497;28;20140;-66
2023/08/05 00:38:31;;;;;;;8.13;3.53;;;;;;;;;;5054406;28;20040;-66
2023/08/05 00:40:57;;;;;;;8.57;3.25;;;;;;;;;;5044454;28;20238;-66
2023/08/05 00:43:24;;;;;;;7.45;3.03;;;;;;;;;;5076807;28;20045;-64
2023/08/05 00:45:52;;;;;;;9.30;3.22;;;;;;;;;;5039836;28;20049;-67
2023/08/05 00:48:19;;;;;;;8.30;3.53;;;;;;;;;;5034079;28;20060;-67
2023/08/05 00:50:46;;;;;;;8.15;3.17;;;;;;;;;;5042975;28;20106;-67
2023/08/05 00:53:14;;;;;;;8.80;3.60;;;;;;;;;;5044148;28;20232;-66
2023/08/05 00:55:41;;;;;;;11.57;3.67;;;;;;;;;;5019066;28;20125;-66
2023/08/05 00:58:09;;;;;;;7.47;3.78;;;;;;;;;;5037703;28;20067;-66
2023/08/05 01:00:35;;;;;;;7.60;3.22;;;;;;;;;;5048598;28;20056;-65
2023/08/05 01:03:04;;;;;;;8.15;3.78;;;;;;;;;;5046767;28;20054;-67
2023/08/05 01:05:31;;;;;;;9.65;3.53;;;;;;;;;;5042153;28;20052;-67
2023/08/05 01:08:00;;;;;;;9.70;3.67;;;;;;;;;;5062532;28;20078;-65
2023/08/05 01:10:27;;;;;;;9.43;3.22;;;;;;;;;;5061662;28;20056;-65
2023/08/05 01:12:54;;;;;;;10.23;3.60;;;;;;;;;;5064424;28;20063;-67
2023/08/05 01:15:21;;;;;;;8.85;3.78;;;;;;;;;;5058800;28;20053;-65
2023/08/05 01:17:48;;;;;;;9.35;3.63;;;;;;;;;;5063783;28;20127;-67
2023/08/05 01:20:19;;;;;;;8.70;2.97;;;;;;;;;;5039770;28;20040;-67
2023/08/05 01:22:52;;;;;;;10.23;4.05;;;;;;;;;;5062631;28;20075;-66
2023/08/05 01:25:27;;;;;;;10.32;3.60;;;;;;;;;;5056545;28;20075;-65
2023/08/05 01:27:55;;;;;;;9.45;3.47;;;;;;;;;;5047664;28;20052;-66
2023/08/05 01:30:23;;;;;;;10.27;3.08;;;;;;;;;;5059057;28;21545;-65
2023/08/05 01:32:52;;;;;;;8.50;3.53;;;;;;;;;;5046667;28;20052;-66
2023/08/05 01:35:21;;;;;;;10.93;3.30;;;;;;;;;;5058867;28;20111;-64
2023/08/05 01:37:47;;;;;;;8.32;3.10;;;;;;;;;;5047231;28;20064;-65
2023/08/05 01:40:14;;;;;;;8.60;3.10;;;;;;;;;;5038826;28;20144;-64
2023/08/05 01:42:43;;;;;;;5.55;3.05;;;;;;;;;;5045405;28;20071;-65
2023/08/05 01:45:10;;;;;;;8.00;2.90;;;;;;;;;;5041012;28;20060;-64
2023/08/05 01:47:36;;;;;;;9.15;3.22;;;;;;;;;;5065174;28;20052;-64
2023/08/05 01:50:04;;;;;;;5.78;3.05;;;;;;;;;;5043212;28;20090;-66
2023/08/05 01:52:30;;;;;;;12.20;3.13;;;;;;;;;;5055132;28;20053;-66
2023/08/05 01:54:57;;;;;;;6.72;3.00;;;;;;;;;;5040166;28;20060;-66
2023/08/05 01:57:24;;;;;;;8.70;3.50;;;;;;;;;;5046432;28;20052;-65
2023/08/05 01:59:52;;;;;;;7.25;3.42;;;;;;;;;;5044555;28;20080;-65
2023/08/05 02:02:19;;;;;;;6.63;3.20;;;;;;;;;;5036551;28;20045;-64
2023/08/05 02:04:45;;;;;;;8.55;3.42;;;;;;;;;;5023612;28;20048;-66
2023/08/05 02:07:12;;;;;;;9.23;3.53;;;;;;;;;;5045284;28;20052;-65
2023/08/05 02:09:39;;;;;;;8.30;3.42;;;;;;;;;;5061951;28;20044;-67
2023/08/05 02:12:09;;;;;;;6.55;3.08;;;;;;;;;;5044151;28;20056;-67
2023/08/05 02:14:36;;;;;;;6.88;3.50;;;;;;;;;;5015446;28;20063;-66
2023/08/05 02:17:04;;;;;;;7.35;2.95;;;;;;;;;;5008635;28;20079;-64
2023/08/05 02:19:31;;;;;;;7.63;3.40;;;;;;;;;;4941942;28;20063;-66
2023/08/05 02:21:58;;;;;;;8.45;3.22;;;;;;;;;;5009898;28;20070;-64
2023/08/05 02:24:24;;;;;;;8.27;3.60;;;;;;;;;;5002570;28;20059;-66
2023/08/05 02:26:51;;;;;;;8.60;3.53;;;;;;;;;;4962593;28;20061;-66
2023/08/05 02:29:18;;;;;;;9.93;3.53;;;;;;;;;;5026832;28;20051;-65
2023/08/05 02:31:45;;;;;;;6.85;2.97;;;;;;;;;;5028264;28;20059;-66
2023/08/05 02:34:13;;;;;;;9.38;3.67;;;;;;;;;;4974435;28;20052;-67
2023/08/05 02:36:40;;;;;;;6.95;3.50;;;;;;;;;;5045052;28;20048;-64
2023/08/05 02:39:07;;;;;;;8.30;3.80;;;;;;;;;;5043499;28;20048;-66
2023/08/05 02:41:33;;;;;;;8.20;3.88;;;;;;;;;;5062220;28;20056;-66
2023/08/05 02:44:00;;;;;;;6.65;3.65;;;;;;;;;;5016934;28;20062;-67
2023/08/05 02:46:27;;;;;;;10.30;3.97;;;;;;;;;;4974887;28;20114;-65
2023/08/05 02:48:53;;;;;;;8.25;3.53;;;;;;;;;;4978153;28;20061;-65
2023/08/05 02:51:21;;;;;;;7.38;3.67;;;;;;;;;;4980317;28;20089;-64
2023/08/05 02:53:48;;;;;;;8.77;3.30;;;;;;;;;;4959025;28;20058;-65
2023/08/05 02:56:15;;;;;;;7.55;3.08;;;;;;;;;;4940877;28;20066;-66
2023/08/05 02:58:42;;;;;;;9.55;3.47;;;;;;;;;;4964158;28;20133;-67
2023/08/05 03:01:09;;;;;;;8.07;3.42;;;;;;;;;;4979279;28;20046;-65
2023/08/05 03:03:36;;;;;;;7.97;3.63;;;;;;;;;;4979089;28;20058;-66
2023/08/05 03:06:03;;;;;;;13.15;3.88;;;;;;;;;;4956405;28;20058;-66
2023/08/05 03:08:32;;;;;;;8.18;3.05;;;;;;;;;;4959003;28;21283;-67
2023/08/05 03:11:00;;;;;;;11.65;3.75;;;;;;;;;;4964721;28;20050;-64
2023/08/05 03:13:26;;;;;;;7.43;3.55;;;;;;;;;;4962561;28;20101;-65
2023/08/05 03:15:54;;;;;;;7.97;3.17;;;;;;;;;;4958457;28;20111;-64
2023/08/05 03:18:21;;;;;;;7.80;3.17;;;;;;;;;;4957354;28;20405;-64
2023/08/05 03:20:49;;;;;;;9.60;3.50;;;;;;;;;;4982941;28;20055;-66
2023/08/05 03:23:16;;;;;;;7.53;3.33;;;;;;;;;;4962763;28;20053;-64
2023/08/05 03:25:44;;;;;;;8.77;3.53;;;;;;;;;;4959980;28;20050;-65
2023/08/05 03:28:10;;;;;;;7.18;3.15;;;;;;;;;;4955426;28;20050;-67
2023/08/05 03:30:37;;;;;;;8.15;3.50;;;;;;;;;;4963044;28;20149;-64
2023/08/05 03:33:04;;;;;;;6.88;3.60;;;;;;;;;;4962923;28;20055;-65
2023/08/05 03:35:30;;;;;;;10.32;3.83;;;;;;;;;;4958818;28;20080;-66
2023/08/05 03:37:57;;;;;;;8.85;4.05;;;;;;;;;;4965596;28;20127;-65
2023/08/05 03:40:24;;;;;;;8.35;3.83;;;;;;;;;;4955124;28;20055;-66
2023/08/05 03:42:52;;;;;;;8.65;4.28;;;;;;;;;;4979346;28;20070;-65
2023/08/05 03:45:19;;;;;;;9.00;4.40;;;;;;;;;;4957839;28;20066;-65
2023/08/05 03:47:49;;;;;;;8.52;3.90;;;;;;;;;;4963461;28;20161;-64
2023/08/05 03:50:16;;;;;;;7.47;4.10;;;;;;;;;;4977283;28;20054;-66
2023/08/05 03:52:43;;;;;;;9.70;3.97;;;;;;;;;;4980278;28;20055;-66
2023/08/05 03:55:10;;;;;;;9.77;4.28;;;;;;;;;;4979395;28;20072;-65
2023/08/05 03:57:36;;;;;;;8.07;3.97;;;;;;;;;;4983400;28;20061;-66
2023/08/05 04:00:08;;;;;;;9.43;4.47;;;;;;;;;;4998981;28;20048;-64
2023/08/05 04:02:36;;;;;;;7.90;4.15;;;;;;;;;;4984967;28;20146;-66
2023/08/05 04:05:03;;;;;;;9.88;4.35;;;;;;;;;;4998694;28;20072;-66
2023/08/05 04:07:30;;;;;;;10.63;4.70;;;;;;;;;;4985666;28;20199;-66
2023/08/05 04:09:57;;;;;;;10.50;4.28;;;;;;;;;;4948500;28;20057;-65
2023/08/05 04:12:25;;;;;;;7.68;4.05;;;;;;;;;;4972813;28;20078;-64
2023/08/05 04:14:53;;;;;;;9.90;4.90;;;;;;;;;;4961142;28;20062;-66
2023/08/05 04:17:21;;;;;;;9.90;5.13;;;;;;;;;;4982801;28;20058;-66
2023/08/05 04:19:50;;;;;;;9.30;4.60;;;;;;;;;;4982498;28;20065;-66
2023/08/05 04:22:20;;;;;;;7.50;3.80;;;;;;;;;;4958031;28;20054;-65
2023/08/05 04:24:46;;;;;;;8.88;4.55;;;;;;;;;;4977499;28;20054;-64
2023/08/05 04:27:13;;;;;;;10.35;4.50;;;;;;;;;;4982349;28;20062;-66
2023/08/05 04:29:41;;;;;;;9.10;4.05;;;;;;;;;;4982268;28;20058;-64
2023/08/05 04:32:07;;;;;;;10.63;4.60;;;;;;;;;;4960081;28;20054;-64
2023/08/05 04:34:37;;;;;;;9.93;4.03;;;;;;;;;;4949944;28;20047;-67
2023/08/05 04:37:16;;;;;;;8.68;4.30;;;;;;;;;;4945898;28;20091;-64
2023/08/05 04:39:42;;;;;;;9.52;4.45;;;;;;;;;;4961427;28;20061;-67
2023/08/05 04:42:09;;;;;;;9.60;4.28;;;;;;;;;;4938329;28;20058;-66
2023/08/05 04:44:37;;;;;;;10.93;4.65;;;;;;;;;;4955164;28;20078;-64
2023/08/05 04:47:04;;;;;;;9.18;4.15;;;;;;;;;;4944361;28;20149;-64
2023/08/05 04:49:31;;;;;;;12.55;4.97;;;;;;;;;;4943242;28;20061;-66
2023/08/05 04:51:59;;;;;;;11.43;4.68;;;;;;;;;;4964927;28;20042;-64
2023/08/05 04:54:26;;;;;;;14.27;5.32;;;;;;;;;;4973320;28;20145;-66
2023/08/05 04:56:53;;;;;;;9.80;4.72;;;;;;;;;;4965487;28;20113;-64
2023/08/05 04:59:19;;;;;;;11.35;5.07;;;;;;;;;;4964201;28;20066;-65
2023/08/05 05:01:46;;;;;;;10.40;5.32;;;;;;;;;;4961159;28;20070;-65
2023/08/05 05:04:13;;;;;;;13.57;6.05;;;;;;;;;;4951834;28;20134;-65
2023/08/05 05:06:39;;;;;;;11.18;5.03;;;;;;;;;;4962466;28;20059;-66
2023/08/05 05:09:08;;;;;;;9.15;4.93;;;;;;;;;;4960918;28;20086;-66
2023/08/05 05:11:34;;;;;;;15.23;6.03;;;;;;;;;;4963057;28;20055;-66
2023/08/05 05:14:03;;;;;;;14.60;5.28;;;;;;;;;;4955458;28;20059;-66
2023/08/05 05:16:30;;;;;;;10.55;5.03;;;;;;;;;;4956577;28;20149;-64
2023/08/05 05:18:56;;;;;;;14.32;5.53;;;;;;;;;;4961895;28;20063;-65
2023/08/05 05:21:23;;;;;;;12.50;4.95;;;;;;;;;;4961623;28;20055;-66
2023/08/05 05:23:49;;;;;;;10.80;5.00;;;;;;;;;;4940176;28;20062;-63
2023/08/05 05:26:17;;;;;;;12.68;4.97;;;;;;;;;;4953566;28;20058;-64
2023/08/05 05:28:44;;;;;;;9.55;4.95;;;;;;;;;;4961143;28;20051;-66
2023/08/05 05:31:11;;;;;;;12.77;5.25;;;;;;;;;;4963952;28;20055;-66
2023/08/05 05:33:37;;;;;;;13.40;4.70;;;;;;;;;;4958829;28;20050;-66
2023/08/05 05:36:05;;;;;;;9.05;4.75;;;;;;;;;;4919504;28;20053;-66
2023/08/05 05:38:32;;;;;;;14.20;5.47;;;;;;;;;;4960181;28;20050;-64
2023/08/05 05:40:59;;;;;;;18.23;5.05;;;;;;;;;;4960238;28;20069;-66
2023/08/05 05:43:27;;;;;;;10.20;5.05;;;;;;;;;;4959543;28;20050;-65
2023/08/05 05:45:54;;;;;;;11.55;5.47;;;;;;;;;;4956214;28;20059;-68
2023/08/05 05:48:20;;;;;;;15.65;5.95;;;;;;;;;;4952874;28;20047;-64
2023/08/05 05:50:47;;;;;;;11.90;5.88;;;;;;;;;;4957619;28;20097;-65
2023/08/05 05:53:14;;;;;;;12.45;5.47;;;;;;;;;;4948535;28;20059;-64
2023/08/05 05:55:42;;;;;;;15.02;6.00;;;;;;;;;;4976121;28;20105;-64
2023/08/05 05:58:09;;;;;;;17.13;5.65;;;;;;;;;;4974644;28;20090;-66
2023/08/05 06:00:39;;;;;;;12.05;5.90;;;;;;;;;;4977492;28;20055;-66
2023/08/05 06:03:06;;;;;;;19.13;6.78;;;;;;;;;;4964868;28;20109;-66
2023/08/05 06:05:34;;;;;;;16.35;5.75;;;;;;;;;;4975076;28;20081;-65
2023/08/05 06:08:01;;;;;;;14.13;6.07;;;;;;;;;;4979894;28;20141;-66
2023/08/05 06:10:28;;;;;;;14.55;6.20;;;;;;;;;;4956820;28;20076;-67
2023/08/05 06:12:55;;;;;;;18.42;6.70;;;;;;;;;;4960124;28;20078;-65
2023/08/05 06:15:22;;;;;;;14.77;6.90;;;;;;;;;;4959442;28;20066;-65
2023/08/05 06:17:50;;;;;;;14.32;7.78;;;;;;;;;;4964130;28;20145;-66
2023/08/05 06:20:17;;;;;;;14.48;6.20;;;;;;;;;;4956574;28;20141;-65
2023/08/05 06:22:44;;;;;;;16.83;6.32;;;;;;;;;;4964801;28;20046;-66
2023/08/05 06:25:10;;;;;;;12.60;6.75;;;;;;;;;;4960200;28;20137;-65
2023/08/05 06:27:37;;;;;;;15.07;6.25;;;;;;;;;;4998424;28;20117;-66
2023/08/05 06:30:05;;;;;;;14.77;6.45;;;;;;;;;;4942260;28;20078;-64
2023/08/05 06:32:32;;;;;;;15.43;6.50;;;;;;;;;;4957867;28;20295;-66
2023/08/05 06:35:00;;;;;;;18.05;8.98;;;;;;;;;;4974281;28;20050;-66
2023/08/05 06:37:26;;;;;;;13.32;6.38;;;;;;;;;;4963639;28;20062;-66
2023/08/05 06:39:53;;;;;;;15.38;5.78;;;;;;;;;;4981000;28;20112;-65
2023/08/05 06:42:23;;;;;;;11.73;6.00;;;;;;;;;;4956581;28;20061;-65
2023/08/05 06:44:50;;;;;;;16.33;6.20;;;;;;;;;;4957835;28;20069;-65
2023/08/05 06:47:16;;;;;;;11.57;5.50;;;;;;;;;;4963588;28;20057;-65
2023/08/05 06:49:43;;;;;;;15.52;6.35;;;;;;;;;;4961417;28;20057;-66
2023/08/05 06:52:12;;;;;;;15.10;6.53;;;;;;;;;;4963727;28;20050;-67
2023/08/05 06:54:39;;;;;;;16.42;6.35;;;;;;;;;;4972155;28;20076;-65
2023/08/05 06:57:07;;;;;;;13.80;6.43;;;;;;;;;;4981200;28;20050;-66
2023/08/05 06:59:34;;;;;;;12.07;5.40;;;;;;;;;;4962757;28;20057;-65
2023/08/05 07:02:01;;;;;;;17.02;5.75;;;;;;;;;;4980212;28;20103;-66
2023/08/05 07:04:28;;;;;;;10.93;5.47;;;;;;;;;;4946098;28;20058;-66
2023/08/05 07:06:55;;;;;;;16.05;6.15;;;;;;;;;;4965912;28;20051;-65
2023/08/05 07:09:23;;;;;;;12.35;5.75;;;;;;;;;;4962666;28;20064;-65
2023/08/05 07:11:50;;;;;;;10.55;5.20;;;;;;;;;;4970392;28;20115;-64
2023/08/05 07:14:19;;;;;;;12.95;5.53;;;;;;;;;;4969200;28;20050;-65
2023/08/05 07:16:46;;;;;;;12.43;5.38;;;;;;;;;;4968413;28;20088;-65
2023/08/05 07:19:13;;;;;;;14.27;5.15;;;;;;;;;;4962750;28;20054;-64
2023/08/05 07:21:39;;;;;;;12.93;5.03;;;;;;;;;;4979404;28;20063;-65
2023/08/05 07:24:06;;;;;;;12.02;4.85;;;;;;;;;;4974296;28;20054;-65
2023/08/05 07:26:35;;;;;;;15.68;4.78;;;;;;;;;;4963336;28;20061;-65
2023/08/05 07:29:01;;;;;;;10.63;3.88;;;;;;;;;;4966079;28;20051;-66
2023/08/05 07:31:28;;;;;;;10.65;4.72;;;;;;;;;;4966682;28;20141;-66
2023/08/05 07:33:55;;;;;;;9.82;4.63;;;;;;;;;;4979766;28;20066;-65
2023/08/05 07:36:22;;;;;;;14.45;4.38;;;;;;;;;;4968334;28;20141;-67
2023/08/05 07:38:51;;;;;;;8.75;3.80;;;;;;;;;;4964679;28;20050;-65
2023/08/05 07:41:20;;;;;;;8.32;4.15;;;;;;;;;;4966530;28;20078;-66
2023/08/05 07:43:48;;;;;;;9.75;4.38;;;;;;;;;;4962631;28;20084;-67
2023/08/05 07:46:16;;;;;;;11.73;5.57;;;;;;;;;;4948110;28;20058;-65
2023/08/05 07:48:45;;;;;;;14.30;5.17;;;;;;;;;;4966434;28;20090;-67
2023/08/05 07:51:12;;;;;;;19.25;9.07;;;;;;;;;;5005007;28;20054;-65
2023/08/05 07:53:39;;;;;;;8.35;4.28;;;;;;;;;;4983214;28;20125;-64
2023/08/05 07:56:10;;;;;;;7.80;3.83;;;;;;;;;;4964889;28;20061;-64
2023/08/05 07:58:39;;;;;;;7.70;3.80;;;;;;;;;;4987942;28;20073;-65
2023/08/05 08:01:07;;;;;;;10.55;4.32;;;;;;;;;;4975785;28;20050;-65
2023/08/05 08:03:34;;;;;;;;;;;;;;;;;;4984075;28;20097;-66
2023/08/05 08:06:01;;;;;;;8.73;3.88;;;;;;;;;;4983379;28;19965;-66
2023/08/05 08:08:27;;;;;;;10.75;5.22;;;;;;;;;;4967285;28;20082;-66
2023/08/05 08:10:54;;;;;;;12.48;4.90;;;;;;;;;;4967236;28;20050;-65
2023/08/05 08:13:21;;;;;;;10.13;4.50;;;;;;;;;;4983314;28;20119;-65
2023/08/05 08:15:48;;;;;;;20.05;7.30;;;;;;;;;;4978061;28;20064;-64
2023/08/05 08:18:16;;;;;;;11.60;5.82;;;;;;;;;;4959240;28;20046;-66
2023/08/05 08:20:52;;;;;;;8.75;4.68;;;;;;;;;;4964669;28;20058;-65
2023/08/05 08:23:19;;;;;;;12.48;5.15;;;;;;;;;;4982539;28;20059;-65
2023/08/05 08:25:46;;;;;;;8.88;4.82;;;;;;;;;;4969954;28;20046;-66
2023/08/05 08:28:13;;;;;;;9.55;4.65;;;;;;;;;;4957206;28;20149;-66
2023/08/05 08:30:40;;;;;;;9.00;4.10;;;;;;;;;;4965191;28;20058;-65
2023/08/05 08:33:07;;;;;;;10.13;4.70;;;;;;;;;;4970314;28;20069;-66
2023/08/05 08:35:35;;;;;;;12.10;4.88;;;;;;;;;;4960836;28;20112;-66
2023/08/05 08:38:02;;;;;;;12.32;5.15;;;;;;;;;;4963780;28;20119;-66
2023/08/05 08:40:35;;;;;;;9.32;4.93;;;;;;;;;;4963538;28;20065;-66
2023/08/05 08:43:03;;;;;;;9.68;5.00;;;;;;;;;;4982315;28;20074;-66
2023/08/05 08:45:33;;;;;;;9.20;4.35;;;;;;;;;;4940007;28;20054;-65
2023/08/05 08:48:01;;;;;;;9.25;4.28;;;;;;;;;;4967566;28;20054;-66
2023/08/05 08:50:29;;;;;;;11.63;5.47;;;;;;;;;;4978710;28;20053;-66
2023/08/05 08:52:59;;;;;;;14.97;4.73;;;;;;;;;;4962937;28;20057;-65
2023/08/05 08:55:27;;;;;;;9.23;5.00;;;;;;;;;;4956954;28;20308;-65
2023/08/05 08:57:53;;;;;;;11.80;4.28;;;;;;;;;;4965155;28;20046;-65
2023/08/05 09:00:20;;;;;;;9.43;4.78;;;;;;;;;;4963695;28;20050;-66
2023/08/05 09:02:48;;;;;;;9.82;3.97;;;;;;;;;;4965169;28;20046;-65
2023/08/05 09:05:15;;;;;;;8.87;3.50;;;;;;;;;;4955016;28;20046;-67
2023/08/05 09:07:42;;;;;;;10.68;3.65;;;;;;;;;;4982446;28;20065;-67
2023/08/05 09:10:11;;;;;;;8.90;3.80;;;;;;;;;;4963484;28;20054;-67
2023/08/05 09:12:39;;;;;;;9.55;4.00;;;;;;;;;;4960705;28;20050;-67
2023/08/05 09:15:07;;;;;;;8.15;3.47;;;;;;;;;;4965536;28;20119;-67
2023/08/05 09:17:38;;;;;;;6.90;3.20;;;;;;;;;;4964005;28;20054;-68
2023/08/05 09:20:12;;;;;;;8.98;3.42;;;;;;;;;;4961825;28;20114;-68
2023/08/05 09:22:39;;;;;;;7.13;3.35;;;;;;;;;;4976978;28;20078;-67
2023/08/05 09:25:07;;;;;;;7.32;3.20;;;;;;;;;;4947116;28;20070;-68
2023/08/05 09:27:50;;;;;;;6.95;3.40;;;;;;;;;;4946041;28;20055;-68
2023/08/05 09:30:18;;;;;;;5.82;3.00;;;;;;;;;;4940864;28;20061;-69
2023/08/05 09:32:45;;;;;;;5.45;2.63;;;;;;;;;;4961881;28;20113;-67
2023/08/05 09:35:13;;;;;;;6.38;2.97;;;;;;;;;;4932700;28;20054;-69
2023/08/05 09:37:40;;;;;;;6.80;2.80;;;;;;;;;;4979036;28;20050;-67
2023/08/05 09:40:16;;;;;;;7.35;2.67;;;;;;;;;;4977980;28;20062;-66
2023/08/05 09:42:47;;;;;;;7.25;3.38;;;;;;;;;;4979895;28;20153;-69
2023/08/05 09:45:15;;;;;;;7.93;3.13;;;;;;;;;;4965091;28;20054;-68
2023/08/05 09:47:43;;;;;;;7.53;3.78;;;;;;;;;;4962149;28;20062;-68
2023/08/05 09:50:13;;;;;;;10.65;4.13;;;;;;;;;;4962723;28;20050;-67
2023/08/05 09:52:41;;;;;;;6.95;3.45;;;;;;;;;;4969806;28;20050;-66
2023/08/05 09:55:13;;;;;;;9.98;3.60;;;;;;;;;;5030849;28;20059;-66
2023/08/05 09:57:41;;;;;;;7.90;3.72;;;;;;;;;;4986244;28;20086;-67
2023/08/05 10:00:14;;;;;;;12.35;5.72;;;;;;;;;;5037532;28;20123;-66
2023/08/05 10:02:42;;;;;;;7.75;3.63;;;;;;;;;;4955779;28;20051;-68
2023/08/05 10:05:13;;;;;;;7.60;3.55;;;;;;;;;;4947768;28;20109;-66
2023/08/05 10:07:41;;;;;;;7.25;3.28;;;;;;;;;;5018999;28;20056;-67
2023/08/05 10:10:11;;;;;;;8.43;4.10;;;;;;;;;;5052951;28;20048;-66
2023/08/05 10:12:44;;;;;;;7.78;4.00;;;;;;;;;;5009231;28;20139;-67
2023/08/05 10:15:18;;;;;;;9.30;3.80;;;;;;;;;;4967518;28;20155;-67
2023/08/05 10:17:47;;;;;;;6.30;3.30;;;;;;;;;;5035169;28;20051;-69
2023/08/05 10:20:15;;;;;;;5.53;3.05;;;;;;;;;;4956159;28;20077;-66
2023/08/05 10:22:42;;;;;;;7.70;3.33;;;;;;;;;;4953808;28;20051;-68
2023/08/05 10:25:09;;;;;;;6.97;3.22;;;;;;;;;;4946450;28;20312;-66
2023/08/05 10:27:38;;;;;;;6.57;3.53;;;;;;;;;;4959038;28;20062;-67
2023/08/05 10:30:28;;;;;;;8.40;3.50;;;;;;;;;;4956835;28;20058;-67
2023/08/05 10:32:56;;;;;;;7.20;2.92;;;;;;;;;;4956636;28;20046;-67
2023/08/05 10:35:30;;;;;;;6.70;2.95;;;;;;;;;;4923430;28;20260;-69
2023/08/05 10:38:11;;;;;;;6.20;3.10;;;;;;;;;;4931010;28;20082;-68
2023/08/05 10:40:42;;;;;;;5.47;3.03;;;;;;;;;;4937925;28;20062;-68
2023/08/05 10:43:10;;;;;;;7.35;3.00;;;;;;;;;;4952658;28;20062;-68
2023/08/05 10:45:41;;;;;;;7.65;3.08;;;;;;;;;;4926048;28;20081;-66
2023/08/05 10:48:09;;;;;;;4.47;2.70;;;;;;;;;;4956879;28;20065;-66
2023/08/05 10:50:41;;;;;;;6.18;2.45;;;;;;;;;;4957819;28;20086;-69
2023/08/05 10:53:09;;;;;;;7.07;2.97;;;;;;;;;;4954578;28;20055;-69
2023/08/05 10:55:47;;;;;;;3.53;2.08;;;;;;;;;;4948276;28;20050;-68
2023/08/05 10:58:14;;;;;;;7.43;1.83;;;;;;;;;;4956427;28;20054;-66
2023/08/05 11:00:44;;;;;;;6.90;2.30;;;;;;;;;;4963297;28;20055;-66
2023/08/05 11:03:25;;;;;;;4.57;2.30;;;;;;;;;;4956113;28;20046;-67
2023/08/05 11:05:54;;;;;;;6.30;2.92;;;;;;;;;;4954267;28;20050;-69
2023/08/05 11:08:21;;;;;;;4.93;2.78;;;;;;;;;;4958551;28;20062;-68
2023/08/05 11:10:49;;;;;;;14.38;5.28;;;;;;;;;;4975243;28;20054;-67
2023/08/05 11:13:16;;;;;;;33.83;17.58;;;;;;;;;;4952559;28;20103;-67
2023/08/05 11:16:00;;;;;;;6.18;3.03;;;;;;;;;;4955022;28;20054;-66
2023/08/05 11:18:27;;;;;;;5.40;2.65;;;;;;;;;;4975851;28;20063;-66
2023/08/05 11:20:57;;;;;;;4.88;2.17;;;;;;;;;;4959239;28;20050;-67
2023/08/05 11:23:25;;;;;;;5.65;2.40;;;;;;;;;;4944061;28;20063;-66
2023/08/05 11:25:52;;;;;;;5.47;2.23;;;;;;;;;;4935220;28;20077;-68
2023/08/05 11:28:20;;;;;;;5.07;2.10;;;;;;;;;;4957159;28;20058;-67
2023/08/05 11:30:48;;;;;;;9.23;2.10;;;;;;;;;;4960518;28;20050;-66
2023/08/05 11:33:15;;;;;;;6.18;2.50;;;;;;;;;;4951100;28;20305;-67
2023/08/05 11:35:46;;;;;;;8.75;2.65;;;;;;;;;;4954917;28;20062;-68
2023/08/05 11:38:16;;;;;;;8.27;2.65;;;;;;;;;;4959143;28;20119;-69
2023/08/05 11:40:45;;;;;;;3.50;1.75;;;;;;;;;;4959215;28;20054;-68
2023/08/05 11:43:13;;;;;;;9.77;2.17;;;;;;;;;;4953911;28;20102;-71
2023/08/05 11:45:41;;;;;;;6.53;2.53;;;;;;;;;;4943971;28;20103;-70
2023/08/05 11:48:17;;;;;;;6.32;2.60;;;;;;;;;;4960594;28;20137;-69
2023/08/05 11:50:44;;;;;;;5.15;2.28;;;;;;;;;;4963529;28;20071;-68
2023/08/05 11:53:12;;;;;;;5.30;2.40;;;;;;;;;;4966664;28;20050;-71
2023/08/05 11:55:40;;;;;;;5.20;2.55;;;;;;;;;;4955061;28;20058;-67
2023/08/05 11:58:07;;;;;;;5.25;3.03;;;;;;;;;;4976913;28;20101;-70
2023/08/05 12:00:34;;;;;;;8.75;3.08;;;;;;;;;;4978336;28;20068;-70
2023/08/05 12:03:04;;;;;;;7.97;2.92;;;;;;;;;;4964300;28;20058;-67
2023/08/05 12:05:33;;;;;;;8.23;2.85;;;;;;;;;;4951236;28;20143;-71
2023/08/05 12:07:59;;;;;;;5.53;3.03;;;;;;;;;;4959077;28;20104;-70
2023/08/05 12:10:29;;;;;;;6.80;3.25;;;;;;;;;;4962318;28;20056;-68
2023/08/05 12:12:56;;;;;;;6.57;3.72;;;;;;;;;;4959093;28;20130;-67
2023/08/05 12:15:26;;;;;;;12.85;4.90;;;;;;;;;;4964718;28;20248;-71
2023/08/05 12:17:55;;;;;;;5.35;3.05;;;;;;;;;;4984532;28;20100;-68
2023/08/05 12:20:26;;;;;;;6.47;2.88;;;;;;;;;;4961354;28;20054;-66
2023/08/05 12:22:55;;;;;;;6.32;2.83;;;;;;;;;;4962971;28;20058;-70
2023/08/05 12:25:23;;;;;;;8.90;3.20;;;;;;;;;;4965729;28;20136;-68
2023/08/05 12:27:50;;;;;;;11.00;2.53;;;;;;;;;;4962757;28;20058;-69
2023/08/05 12:30:16;;;;;;;7.00;2.72;;;;;;;;;;4979696;28;20309;-70
2023/08/05 12:32:43;;;;;;;9.63;3.08;;;;;;;;;;4959650;28;20054;-67
2023/08/05 12:35:15;;;;;;;6.22;2.40;;;;;;;;;;4946200;28;20127;-69
2023/08/05 12:37:44;;;;;;;5.75;2.80;;;;;;;;;;4961794;28;20091;-71
2023/08/05 12:40:17;;;;;;;6.40;2.65;;;;;;;;;;4962666;28;20050;-69
2023/08/05 12:42:44;;;;;;;6.90;2.75;;;;;;;;;;4962328;28;20082;-70
2023/08/05 12:45:11;;;;;;;6.95;2.75;;;;;;;;;;4954795;28;20062;-71
2023/08/05 12:47:39;;;;;;;8.07;3.20;;;;;;;;;;4960680;28;20058;-66
2023/08/05 12:50:07;;;;;;;7.25;2.47;;;;;;;;;;4958029;28;20058;-68
2023/08/05 12:52:34;;;;;;;6.68;2.67;;;;;;;;;;4964030;28;20062;-67
2023/08/05 12:55:02;;;;;;;13.25;2.80;;;;;;;;;;4956179;28;20081;-68
2023/08/05 12:57:32;;;;;;;6.95;3.05;;;;;;;;;;4955866;28;20898;-69
2023/08/05 12:59:58;;;;;;;5.88;2.72;;;;;;;;;;4976870;28;20062;-65
2023/08/05 13:02:25;;;;;;;5.47;2.30;;;;;;;;;;4962777;28;20050;-68
2023/08/05 13:04:52;;;;;;;8.25;3.08;;;;;;;;;;4949617;28;20039;-67
2023/08/05 13:07:19;;;;;;;5.47;2.40;;;;;;;;;;4952117;28;20051;-71
2023/08/05 13:09:46;;;;;;;7.13;2.35;;;;;;;;;;4960972;28;20053;-67
2023/08/05 13:12:14;;;;;;;4.75;2.17;;;;;;;;;;4963874;28;20061;-69
2023/08/05 13:14:43;;;;;;;9.85;2.47;;;;;;;;;;4959880;28;20058;-66
2023/08/05 13:17:10;;;;;;;4.97;1.92;;;;;;;;;;4952759;28;20078;-70
2023/08/05 13:19:37;;;;;;;7.63;2.22;;;;;;;;;;4959112;28;20054;-69
2023/08/05 13:22:05;;;;;;;5.15;1.90;;;;;;;;;;4961050;28;20154;-68
2023/08/05 13:24:33;;;;;;;4.45;1.83;;;;;;;;;;4977871;28;20081;-68
2023/08/05 13:27:00;;;;;;;4.45;1.90;;;;;;;;;;4966295;28;20086;-67
2023/08/05 13:29:27;;;;;;;4.88;1.90;;;;;;;;;;4951869;28;20073;-70
2023/08/05 13:31:55;;;;;;;3.75;1.85;;;;;;;;;;4960891;28;20065;-68
2023/08/05 13:34:22;;;;;;;5.93;1.88;;;;;;;;;;4977574;28;20062;-68
2023/08/05 13:36:49;;;;;;;4.30;1.85;;;;;;;;;;4975399;28;20069;-66
2023/08/05 13:39:15;;;;;;;4.30;1.83;;;;;;;;;;4956491;28;20166;-69
2023/08/05 13:41:42;;;;;;;6.03;2.00;;;;;;;;;;4956354;28;20069;-70
2023/08/05 13:44:09;;;;;;;6.22;1.92;;;;;;;;;;4966100;28;20046;-67
2023/08/05 13:46:36;;;;;;;5.18;1.70;;;;;;;;;;4956171;28;20185;-70
2023/08/05 13:49:04;;;;;;;3.58;1.75;;;;;;;;;;4962854;28;20074;-71
2023/08/05 13:51:31;;;;;;;4.53;2.00;;;;;;;;;;4956208;28;20096;-68
2023/08/05 13:53:58;;;;;;;6.45;2.15;;;;;;;;;;4960863;28;20131;-68
2023/08/05 13:56:26;;;;;;;3.72;1.90;;;;;;;;;;4955717;28;20050;-71
2023/08/05 13:58:53;;;;;;;4.47;2.10;;;;;;;;;;4978105;28;20061;-68
2023/08/05 14:01:20;;;;;;;5.18;2.10;;;;;;;;;;4953161;28;20078;-69
2023/08/05 14:03:47;;;;;;;4.22;2.08;;;;;;;;;;4960028;28;20178;-69
2023/08/05 14:06:15;;;;;;;5.40;1.98;;;;;;;;;;4955114;28;20077;-67
2023/08/05 14:08:42;;;;;;;6.03;2.30;;;;;;;;;;4962907;28;20050;-71
2023/08/05 14:11:09;;;;;;;7.82;2.20;;;;;;;;;;4975253;28;20062;-68
2023/08/05 14:13:35;;;;;;;5.05;2.40;;;;;;;;;;4955081;28;20115;-69
2023/08/05 14:16:04;;;;;;;3.80;2.05;;;;;;;;;;4938666;28;20064;-71
2023/08/05 14:18:31;;;;;;;11.80;3.85;;;;;;;;;;4961031;28;20080;-69
2023/08/05 14:20:58;;;;;;;6.32;2.67;;;;;;;;;;4977353;28;20115;-66
2023/08/05 14:23:26;;;;;;;8.63;2.20;;;;;;;;;;4953820;28;20096;-67
2023/08/05 14:25:53;;;;;;;4.68;2.05;;;;;;;;;;4945629;28;20051;-68
2023/08/05 14:28:22;;;;;;;4.85;2.30;;;;;;;;;;4959938;28;20050;-71
2023/08/05 14:30:49;;;;;;;6.45;2.30;;;;;;;;;;4940188;28;20134;-70
2023/08/05 14:33:15;;;;;;;5.35;2.10;;;;;;;;;;4957430;28;20274;-70
2023/08/05 14:35:42;;;;;;;5.90;2.30;;;;;;;;;;4961818;28;20069;-66
2023/08/05 14:38:09;;;;;;;5.47;2.35;;;;;;;;;;4986324;28;20046;-67
2023/08/05 14:40:37;;;;;;;6.32;2.58;;;;;;;;;;4959674;28;20042;-67
2023/08/05 14:43:05;;;;;;;7.22;2.58;;;;;;;;;;4976295;28;20054;-70